sensor_id;sensor_type;location;lat;lon;timestamp;temperature;humidity
20422;DHT22;10370;53.102;18.034;2024-03-17T00:07:59;4.60;99.90
20422;DHT22;10370;53.102;18.034;2024-03-17T00:13:23;4.50;99.90
20422;DHT22;10370;53.102;18.034;2024-03-17T00:18:50;4.50;99.90
20422;DHT22;10370;53.102;18.034;2024-03-17T00:24:12;4.40;99.90
20422;DHT22;10370;53.102;18.034;2024-03-17T00:30:45;4.40;99.90
20422;DHT22;10370;53.102;18.034;2024-03-17T00:36:06;4.60;99.90
20422;DHT22;10370;53.102;18.034;2024-03-17T00:41:27;4.80;99.90
20422;DHT22;10370;53.102;18.034;2024-03-17T00:46:49;5.00;99.90
20422;DHT22;10370;53.102;18.034;2024-03-17T01:04:40;5.20;99.90
20422;DHT22;10370;53.102;18.034;2024-03-17T01:16:42;5.30;99.90
20422;DHT22;10370;53.102;18.034;2024-03-17T01:22:03;5.40;99.90
20422;DHT22;10370;53.102;18.034;2024-03-17T01:27:25;5.50;99.90
20422;DHT22;10370;53.102;18.034;2024-03-17T01:32:46;5.60;99.90
20422;DHT22;10370;53.102;18.034;2024-03-17T01:38:07;5.60;99.90
20422;DHT22;10370;53.102;18.034;2024-03-17T01:43:46;5.50;99.90
20422;DHT22;10370;53.102;18.034;2024-03-17T01:49:08;5.60;99.90
20422;DHT22;10370;53.102;18.034;2024-03-17T01:54:29;5.60;99.90
20422;DHT22;10370;53.102;18.034;2024-03-17T01:59:52;5.50;99.90
20422;DHT22;10370;53.102;18.034;2024-03-17T02:05:17;5.50;99.90
20422;DHT22;10370;53.102;18.034;2024-03-17T02:10:38;5.50;99.90
20422;DHT22;10370;53.102;18.034;2024-03-17T02:16:00;5.50;99.90
20422;DHT22;10370;53.102;18.034;2024-03-17T02:21:22;5.50;99.90
20422;DHT22;10370;53.102;18.034;2024-03-17T02:26:48;5.50;99.90
20422;DHT22;10370;53.102;18.034;2024-03-17T02:32:09;5.50;99.90
20422;DHT22;10370;53.102;18.034;2024-03-17T02:43:40;5.60;99.90
20422;DHT22;10370;53.102;18.034;2024-03-17T02:49:02;5.60;99.90
20422;DHT22;10370;53.102;18.034;2024-03-17T02:54:24;5.50;99.90
20422;DHT22;10370;53.102;18.034;2024-03-17T02:59:45;5.50;99.90
20422;DHT22;10370;53.102;18.034;2024-03-17T03:05:07;5.50;99.90
20422;DHT22;10370;53.102;18.034;2024-03-17T03:10:29;5.60;99.90
20422;DHT22;10370;53.102;18.034;2024-03-17T03:15:51;5.50;99.90
20422;DHT22;10370;53.102;18.034;2024-03-17T03:21:12;5.50;99.90
20422;DHT22;10370;53.102;18.034;2024-03-17T03:26:34;5.50;99.90
20422;DHT22;10370;53.102;18.034;2024-03-17T03:31:55;5.50;99.90
20422;DHT22;10370;53.102;18.034;2024-03-17T03:37:43;5.40;99.90
20422;DHT22;10370;53.102;18.034;2024-03-17T03:43:04;5.40;99.90
20422;DHT22;10370;53.102;18.034;2024-03-17T03:48:26;5.40;99.90
20422;DHT22;10370;53.102;18.034;2024-03-17T03:53:47;5.50;99.90
20422;DHT22;10370;53.102;18.034;2024-03-17T03:59:09;5.40;99.90
20422;DHT22;10370;53.102;18.034;2024-03-17T04:04:30;5.40;99.90
20422;DHT22;10370;53.102;18.034;2024-03-17T04:09:54;5.50;99.90
20422;DHT22;10370;53.102;18.034;2024-03-17T04:15:15;5.40;99.90
20422;DHT22;10370;53.102;18.034;2024-03-17T04:20:37;5.40;99.90
20422;DHT22;10370;53.102;18.034;2024-03-17T04:25:59;5.20;99.90
20422;DHT22;10370;53.102;18.034;2024-03-17T04:31:21;4.80;99.90
20422;DHT22;10370;53.102;18.034;2024-03-17T04:36:44;4.70;99.90
20422;DHT22;10370;53.102;18.034;2024-03-17T04:42:10;4.50;99.90
20422;DHT22;10370;53.102;18.034;2024-03-17T04:47:59;4.50;99.90
20422;DHT22;10370;53.102;18.034;2024-03-17T04:53:26;4.50;99.90
20422;DHT22;10370;53.102;18.034;2024-03-17T04:58:54;4.60;99.90
20422;DHT22;10370;53.102;18.034;2024-03-17T05:04:15;4.50;99.90
20422;DHT22;10370;53.102;18.034;2024-03-17T05:09:37;4.50;99.90
20422;DHT22;10370;53.102;18.034;2024-03-17T05:15:04;4.50;99.90
20422;DHT22;10370;53.102;18.034;2024-03-17T05:26:58;4.50;99.90
20422;DHT22;10370;53.102;18.034;2024-03-17T05:33:31;4.50;99.90
20422;DHT22;10370;53.102;18.034;2024-03-17T05:38:39;4.50;99.90
20422;DHT22;10370;53.102;18.034;2024-03-17T05:44:01;4.50;99.90
20422;DHT22;10370;53.102;18.034;2024-03-17T05:49:24;4.50;99.90
20422;DHT22;10370;53.102;18.034;2024-03-17T05:54:46;4.60;99.90
20422;DHT22;10370;53.102;18.034;2024-03-17T06:00:08;4.50;99.90
20422;DHT22;10370;53.102;18.034;2024-03-17T06:05:33;4.50;99.90
20422;DHT22;10370;53.102;18.034;2024-03-17T06:10:57;4.50;99.90
20422;DHT22;10370;53.102;18.034;2024-03-17T06:16:21;4.50;99.90
20422;DHT22;10370;53.102;18.034;2024-03-17T06:21:50;4.50;99.90
20422;DHT22;10370;53.102;18.034;2024-03-17T06:27:12;4.60;99.90
20422;DHT22;10370;53.102;18.034;2024-03-17T06:32:35;4.70;99.90
20422;DHT22;10370;53.102;18.034;2024-03-17T06:37:59;4.60;99.90
20422;DHT22;10370;53.102;18.034;2024-03-17T06:43:22;4.70;99.90
20422;DHT22;10370;53.102;18.034;2024-03-17T06:48:43;4.60;99.90
20422;DHT22;10370;53.102;18.034;2024-03-17T06:54:37;4.60;99.90
20422;DHT22;10370;53.102;18.034;2024-03-17T06:59:59;4.70;99.90
20422;DHT22;10370;53.102;18.034;2024-03-17T07:05:21;4.70;99.90
20422;DHT22;10370;53.102;18.034;2024-03-17T07:10:42;4.90;99.90
20422;DHT22;10370;53.102;18.034;2024-03-17T07:16:05;5.00;99.90
20422;DHT22;10370;53.102;18.034;2024-03-17T07:21:27;5.10;99.90
20422;DHT22;10370;53.102;18.034;2024-03-17T07:26:49;5.10;99.90
20422;DHT22;10370;53.102;18.034;2024-03-17T07:32:11;5.00;99.90
20422;DHT22;10370;53.102;18.034;2024-03-17T07:37:32;4.90;99.90
20422;DHT22;10370;53.102;18.034;2024-03-17T07:42:54;5.00;99.90
20422;DHT22;10370;53.102;18.034;2024-03-17T07:48:15;5.10;99.90
20422;DHT22;10370;53.102;18.034;2024-03-17T07:53:38;5.10;99.90
20422;DHT22;10370;53.102;18.034;2024-03-17T07:59:21;5.30;99.90
20422;DHT22;10370;53.102;18.034;2024-03-17T08:05:07;5.20;99.90
20422;DHT22;10370;53.102;18.034;2024-03-17T08:10:29;5.20;99.90
20422;DHT22;10370;53.102;18.034;2024-03-17T08:22:07;4.70;99.90
20422;DHT22;10370;53.102;18.034;2024-03-17T08:27:28;4.90;99.90
20422;DHT22;10370;53.102;18.034;2024-03-17T08:32:50;5.00;99.90
20422;DHT22;10370;53.102;18.034;2024-03-17T08:38:11;5.10;99.90
20422;DHT22;10370;53.102;18.034;2024-03-17T08:43:37;5.10;99.90
20422;DHT22;10370;53.102;18.034;2024-03-17T08:55:01;4.90;99.90
20422;DHT22;10370;53.102;18.034;2024-03-17T09:00:30;4.60;99.90
20422;DHT22;10370;53.102;18.034;2024-03-17T09:05:57;4.50;99.90
20422;DHT22;10370;53.102;18.034;2024-03-17T09:11:18;4.60;99.90
20422;DHT22;10370;53.102;18.034;2024-03-17T09:16:46;4.80;99.90
20422;DHT22;10370;53.102;18.034;2024-03-17T09:22:08;4.80;99.90
20422;DHT22;10370;53.102;18.034;2024-03-17T09:35:07;4.30;99.90
20422;DHT22;10370;53.102;18.034;2024-03-17T09:40:28;4.30;99.90
20422;DHT22;10370;53.102;18.034;2024-03-17T09:45:51;4.60;99.90
20422;DHT22;10370;53.102;18.034;2024-03-17T09:52:24;4.80;99.90
20422;DHT22;10370;53.102;18.034;2024-03-17T09:57:25;5.20;99.90
20422;DHT22;10370;53.102;18.034;2024-03-17T10:02:47;5.40;99.90
20422;DHT22;10370;53.102;18.034;2024-03-17T10:14:59;5.60;99.90
20422;DHT22;10370;53.102;18.034;2024-03-17T10:20:23;5.70;99.90
20422;DHT22;10370;53.102;18.034;2024-03-17T10:25:45;5.50;99.90
20422;DHT22;10370;53.102;18.034;2024-03-17T10:31:07;5.60;99.90
20422;DHT22;10370;53.102;18.034;2024-03-17T10:43:03;5.60;99.90
20422;DHT22;10370;53.102;18.034;2024-03-17T10:55:21;5.90;99.90
20422;DHT22;10370;53.102;18.034;2024-03-17T11:00:44;5.50;99.90
20422;DHT22;10370;53.102;18.034;2024-03-17T11:06:08;5.50;99.90
20422;DHT22;10370;53.102;18.034;2024-03-17T11:18:34;5.30;99.90
20422;DHT22;10370;53.102;18.034;2024-03-17T11:24:20;5.60;99.90
20422;DHT22;10370;53.102;18.034;2024-03-17T11:35:44;5.80;99.90
20422;DHT22;10370;53.102;18.034;2024-03-17T11:47:05;5.50;99.90
20422;DHT22;10370;53.102;18.034;2024-03-17T11:59:24;5.30;99.90
20422;DHT22;10370;53.102;18.034;2024-03-17T12:05:12;5.50;99.90
20422;DHT22;10370;53.102;18.034;2024-03-17T12:17:36;5.50;99.90
20422;DHT22;10370;53.102;18.034;2024-03-17T12:23:12;5.30;99.90
20422;DHT22;10370;53.102;18.034;2024-03-17T12:28:46;5.20;99.90
20422;DHT22;10370;53.102;18.034;2024-03-17T12:40:21;4.80;99.90
20422;DHT22;10370;53.102;18.034;2024-03-17T12:45:43;4.90;99.90
20422;DHT22;10370;53.102;18.034;2024-03-17T12:51:14;4.80;99.90
20422;DHT22;10370;53.102;18.034;2024-03-17T12:56:35;4.90;99.90
20422;DHT22;10370;53.102;18.034;2024-03-17T13:02:15;4.70;99.90
20422;DHT22;10370;53.102;18.034;2024-03-17T13:07:37;4.70;99.90
20422;DHT22;10370;53.102;18.034;2024-03-17T13:13:25;4.50;99.90
20422;DHT22;10370;53.102;18.034;2024-03-17T13:18:47;4.50;99.90
20422;DHT22;10370;53.102;18.034;2024-03-17T13:24:17;4.60;99.90
20422;DHT22;10370;53.102;18.034;2024-03-17T13:29:40;4.50;99.90
20422;DHT22;10370;53.102;18.034;2024-03-17T13:35:15;4.80;99.90
20422;DHT22;10370;53.102;18.034;2024-03-17T13:40:39;4.90;99.90
20422;DHT22;10370;53.102;18.034;2024-03-17T13:46:01;4.70;99.90
20422;DHT22;10370;53.102;18.034;2024-03-17T13:51:25;4.70;99.90
20422;DHT22;10370;53.102;18.034;2024-03-17T13:56:47;4.80;99.90
20422;DHT22;10370;53.102;18.034;2024-03-17T14:02:13;4.50;99.90
20422;DHT22;10370;53.102;18.034;2024-03-17T14:07:37;4.40;99.90
20422;DHT22;10370;53.102;18.034;2024-03-17T14:12:59;4.20;99.90
20422;DHT22;10370;53.102;18.034;2024-03-17T14:18:20;4.20;99.90
20422;DHT22;10370;53.102;18.034;2024-03-17T14:23:42;4.30;99.90
20422;DHT22;10370;53.102;18.034;2024-03-17T14:29:26;4.20;99.90
20422;DHT22;10370;53.102;18.034;2024-03-17T14:35:16;4.20;99.90
20422;DHT22;10370;53.102;18.034;2024-03-17T14:41:02;4.10;99.90
20422;DHT22;10370;53.102;18.034;2024-03-17T14:46:26;4.10;99.90
20422;DHT22;10370;53.102;18.034;2024-03-17T14:51:48;4.00;99.90
20422;DHT22;10370;53.102;18.034;2024-03-17T14:57:10;3.80;99.90
20422;DHT22;10370;53.102;18.034;2024-03-17T15:02:31;3.10;99.90
20422;DHT22;10370;53.102;18.034;2024-03-17T15:07:53;2.90;99.90
20422;DHT22;10370;53.102;18.034;2024-03-17T15:13:15;3.00;99.90
20422;DHT22;10370;53.102;18.034;2024-03-17T15:19:04;3.20;99.90
20422;DHT22;10370;53.102;18.034;2024-03-17T15:24:27;3.40;99.90
20422;DHT22;10370;53.102;18.034;2024-03-17T15:36:54;3.50;99.90
20422;DHT22;10370;53.102;18.034;2024-03-17T15:42:16;3.40;99.90
20422;DHT22;10370;53.102;18.034;2024-03-17T15:55:05;3.10;99.90
20422;DHT22;10370;53.102;18.034;2024-03-17T16:00:27;3.10;99.90
20422;DHT22;10370;53.102;18.034;2024-03-17T16:05:50;3.10;99.90
20422;DHT22;10370;53.102;18.034;2024-03-17T16:11:44;3.10;99.90
20422;DHT22;10370;53.102;18.034;2024-03-17T16:17:06;3.10;99.90
20422;DHT22;10370;53.102;18.034;2024-03-17T16:22:29;3.10;99.90
20422;DHT22;10370;53.102;18.034;2024-03-17T16:27:51;3.10;99.90
20422;DHT22;10370;53.102;18.034;2024-03-17T16:33:16;3.10;99.90
20422;DHT22;10370;53.102;18.034;2024-03-17T16:38:38;3.10;99.90
20422;DHT22;10370;53.102;18.034;2024-03-17T16:49:32;3.10;99.90
20422;DHT22;10370;53.102;18.034;2024-03-17T16:54:57;3.00;99.90
20422;DHT22;10370;53.102;18.034;2024-03-17T17:00:19;3.00;99.90
20422;DHT22;10370;53.102;18.034;2024-03-17T17:05:42;3.00;99.90
20422;DHT22;10370;53.102;18.034;2024-03-17T17:11:03;3.00;99.90
20422;DHT22;10370;53.102;18.034;2024-03-17T17:16:25;3.00;99.90
20422;DHT22;10370;53.102;18.034;2024-03-17T17:21:50;2.80;99.90
20422;DHT22;10370;53.102;18.034;2024-03-17T17:27:19;2.70;99.90
20422;DHT22;10370;53.102;18.034;2024-03-17T17:32:44;2.60;99.90
20422;DHT22;10370;53.102;18.034;2024-03-17T17:38:05;2.50;99.90
20422;DHT22;10370;53.102;18.034;2024-03-17T17:43:28;2.50;99.90
20422;DHT22;10370;53.102;18.034;2024-03-17T17:48:49;2.60;99.90
20422;DHT22;10370;53.102;18.034;2024-03-17T17:54:33;2.20;99.90
20422;DHT22;10370;53.102;18.034;2024-03-17T17:59:54;2.00;99.90
20422;DHT22;10370;53.102;18.034;2024-03-17T18:05:44;2.00;99.90
20422;DHT22;10370;53.102;18.034;2024-03-17T18:11:41;1.90;99.90
20422;DHT22;10370;53.102;18.034;2024-03-17T18:17:02;1.80;99.90
20422;DHT22;10370;53.102;18.034;2024-03-17T18:22:24;1.80;99.90
20422;DHT22;10370;53.102;18.034;2024-03-17T18:27:45;1.80;99.90
20422;DHT22;10370;53.102;18.034;2024-03-17T18:33:07;1.80;99.90
20422;DHT22;10370;53.102;18.034;2024-03-17T18:38:29;1.70;99.90
20422;DHT22;10370;53.102;18.034;2024-03-17T18:43:51;1.80;99.90
20422;DHT22;10370;53.102;18.034;2024-03-17T18:49:15;1.80;99.90
20422;DHT22;10370;53.102;18.034;2024-03-17T18:54:36;1.80;99.90
20422;DHT22;10370;53.102;18.034;2024-03-17T18:59:58;1.80;99.90
20422;DHT22;10370;53.102;18.034;2024-03-17T19:05:20;1.80;99.90
20422;DHT22;10370;53.102;18.034;2024-03-17T19:10:41;1.90;99.90
20422;DHT22;10370;53.102;18.034;2024-03-17T19:16:05;1.80;99.90
20422;DHT22;10370;53.102;18.034;2024-03-17T19:21:27;1.90;99.90
20422;DHT22;10370;53.102;18.034;2024-03-17T19:27:11;1.80;99.90
20422;DHT22;10370;53.102;18.034;2024-03-17T19:32:35;1.80;99.90
20422;DHT22;10370;53.102;18.034;2024-03-17T19:37:58;1.80;99.90
20422;DHT22;10370;53.102;18.034;2024-03-17T19:43:19;1.80;99.90
20422;DHT22;10370;53.102;18.034;2024-03-17T19:54:32;1.80;99.90
20422;DHT22;10370;53.102;18.034;2024-03-17T19:59:56;1.80;99.90
20422;DHT22;10370;53.102;18.034;2024-03-17T20:05:17;1.90;99.90
20422;DHT22;10370;53.102;18.034;2024-03-17T20:11:01;1.90;99.90
20422;DHT22;10370;53.102;18.034;2024-03-17T20:16:24;1.90;99.90
20422;DHT22;10370;53.102;18.034;2024-03-17T20:22:08;1.80;99.90
20422;DHT22;10370;53.102;18.034;2024-03-17T20:27:31;1.80;99.90
20422;DHT22;10370;53.102;18.034;2024-03-17T20:33:36;1.90;99.90
20422;DHT22;10370;53.102;18.034;2024-03-17T20:39:12;1.80;99.90
20422;DHT22;10370;53.102;18.034;2024-03-17T20:44:39;1.80;99.90
20422;DHT22;10370;53.102;18.034;2024-03-17T20:50:24;1.80;99.90
20422;DHT22;10370;53.102;18.034;2024-03-17T20:56:02;1.90;99.90
20422;DHT22;10370;53.102;18.034;2024-03-17T21:01:23;1.90;99.90
20422;DHT22;10370;53.102;18.034;2024-03-17T21:06:45;1.90;99.90
20422;DHT22;10370;53.102;18.034;2024-03-17T21:12:07;1.90;99.90
20422;DHT22;10370;53.102;18.034;2024-03-17T21:17:29;1.80;99.90
20422;DHT22;10370;53.102;18.034;2024-03-17T21:22:50;1.80;99.90
20422;DHT22;10370;53.102;18.034;2024-03-17T21:28:13;1.90;99.90
20422;DHT22;10370;53.102;18.034;2024-03-17T21:33:36;1.90;99.90
20422;DHT22;10370;53.102;18.034;2024-03-17T21:38:58;1.90;99.90
20422;DHT22;10370;53.102;18.034;2024-03-17T21:44:29;1.90;99.90
20422;DHT22;10370;53.102;18.034;2024-03-17T21:49:54;1.90;99.90
20422;DHT22;10370;53.102;18.034;2024-03-17T21:55:24;1.80;99.90
20422;DHT22;10370;53.102;18.034;2024-03-17T22:00:46;1.80;99.90
20422;DHT22;10370;53.102;18.034;2024-03-17T22:06:07;1.80;99.90
20422;DHT22;10370;53.102;18.034;2024-03-17T22:11:29;1.80;99.90
20422;DHT22;10370;53.102;18.034;2024-03-17T22:17:00;1.80;99.90
20422;DHT22;10370;53.102;18.034;2024-03-17T22:22:22;1.80;99.90
20422;DHT22;10370;53.102;18.034;2024-03-17T22:27:43;1.70;99.90
20422;DHT22;10370;53.102;18.034;2024-03-17T22:33:05;1.70;99.90
20422;DHT22;10370;53.102;18.034;2024-03-17T22:38:28;1.70;99.90
20422;DHT22;10370;53.102;18.034;2024-03-17T22:43:49;1.60;99.90
20422;DHT22;10370;53.102;18.034;2024-03-17T22:49:11;1.70;99.90
20422;DHT22;10370;53.102;18.034;2024-03-17T22:54:33;1.60;99.90
20422;DHT22;10370;53.102;18.034;2024-03-17T22:59:54;1.60;99.90
20422;DHT22;10370;53.102;18.034;2024-03-17T23:11:16;1.60;99.90
20422;DHT22;10370;53.102;18.034;2024-03-17T23:16:37;1.60;99.90
20422;DHT22;10370;53.102;18.034;2024-03-17T23:21:59;1.60;99.90
20422;DHT22;10370;53.102;18.034;2024-03-17T23:27:20;1.50;99.90
20422;DHT22;10370;53.102;18.034;2024-03-17T23:32:42;1.50;99.90
20422;DHT22;10370;53.102;18.034;2024-03-17T23:38:03;1.50;99.90
20422;DHT22;10370;53.102;18.034;2024-03-17T23:43:28;1.50;99.90
20422;DHT22;10370;53.102;18.034;2024-03-17T23:48:50;1.50;99.90
20422;DHT22;10370;53.102;18.034;2024-03-17T23:54:11;1.50;99.90
20422;DHT22;10370;53.102;18.034;2024-03-17T23:59:32;1.50;99.90
